createdAt,value
2023-02-19T00:00:59.466Z,97738.34
2023-02-19T00:03:26.536Z,97731.25
2023-02-19T00:05:53.540Z,97722.94
2023-02-19T00:08:20.471Z,97716.44
2023-02-19T00:10:47.407Z,97713.94
2023-02-19T00:13:15.048Z,97724.22
2023-02-19T00:15:42.076Z,97712.03
2023-02-19T00:18:08.961Z,97719.41
2023-02-19T00:20:35.886Z,97716.91
2023-02-19T00:23:02.840Z,97712.53
2023-02-19T00:25:29.793Z,97707.13
2023-02-19T00:27:56.996Z,97710.88
2023-02-19T00:30:24.821Z,97700.44
2023-02-19T00:32:52.077Z,97708.50
2023-02-19T00:35:19.095Z,97690.75
2023-02-19T00:37:46.296Z,97697.16
2023-02-19T00:40:13.512Z,97700.31
2023-02-19T00:42:40.573Z,97703.41
2023-02-19T00:45:07.834Z,97703.19
2023-02-19T00:47:34.899Z,97696.91
2023-02-19T00:50:01.873Z,97695.47
2023-02-19T00:52:30.194Z,97700.47
2023-02-19T00:54:57.123Z,97696.22
2023-02-19T00:57:24.065Z,97681.66
2023-02-19T00:59:51.303Z,97675.81
2023-02-19T01:02:18.308Z,97677.91
2023-02-19T01:04:45.520Z,97674.59
2023-02-19T01:07:12.362Z,97668.56
2023-02-19T01:09:39.378Z,97669.75
2023-02-19T01:12:06.783Z,97655.78
2023-02-19T01:14:33.802Z,97653.69
2023-02-19T01:17:00.794Z,97656.56
2023-02-19T01:19:27.789Z,97653.34
2023-02-19T01:21:54.901Z,97643.28
2023-02-19T01:24:21.835Z,97643.59
2023-02-19T01:26:48.794Z,97639.06
2023-02-19T01:29:15.827Z,97643.25
2023-02-19T01:31:42.836Z,97643.78
2023-02-19T01:34:10.654Z,97637.22
2023-02-19T01:36:37.990Z,97636.25
2023-02-19T01:39:08.224Z,97630.13
2023-02-19T01:41:37.081Z,97635.66
2023-02-19T01:44:08.047Z,97624.16
2023-02-19T01:46:36.698Z,97625.84
2023-02-19T01:49:06.715Z,97621.22
2023-02-19T01:51:36.617Z,97629.50
2023-02-19T01:54:05.789Z,97627.25
2023-02-19T01:56:34.314Z,97625.72
2023-02-19T01:59:02.062Z,97626.25
2023-02-19T02:01:29.032Z,97624.06
2023-02-19T02:03:56.121Z,97621.53
2023-02-19T02:06:24.670Z,97626.16
2023-02-19T02:09:11.501Z,97623.94
2023-02-19T02:11:40.705Z,97622.44
2023-02-19T02:14:08.058Z,97627.63
2023-02-19T02:17:10.779Z,97623.88
2023-02-19T02:19:38.314Z,97631.06
2023-02-19T02:22:05.216Z,97624.69
2023-02-19T02:24:44.141Z,97620.78
2023-02-19T02:27:29.703Z,97625.38
2023-02-19T02:30:32.774Z,97620.16
2023-02-19T02:33:17.805Z,97622.78
2023-02-19T02:35:54.090Z,97622.09
2023-02-19T02:38:26.105Z,97619.44
2023-02-19T02:40:54.440Z,97616.41
2023-02-19T02:43:22.424Z,97615.44
2023-02-19T02:45:49.724Z,97610.59
2023-02-19T02:48:27.393Z,97607.91
2023-02-19T02:50:56.795Z,97601.53
2023-02-19T02:54:03.559Z,97602.75
2023-02-19T02:56:31.270Z,97595.97
2023-02-19T02:58:59.198Z,97604.94
2023-02-19T03:01:51.753Z,97603.16
2023-02-19T03:04:30.625Z,97600.88
2023-02-19T03:07:00.569Z,97592.19
2023-02-19T03:09:40.894Z,97586.84
2023-02-19T03:12:32.279Z,97586.16
2023-02-19T03:15:20.089Z,97593.22
2023-02-19T03:18:07.963Z,97585.09
2023-02-19T03:20:37.202Z,97584.13
2023-02-19T03:23:06.530Z,97592.81
2023-02-19T03:25:53.730Z,97581.19
2023-02-19T03:28:51.369Z,97579.53
2023-02-19T03:31:21.480Z,97576.78
2023-02-19T03:33:51.697Z,97585.63
2023-02-19T03:36:20.900Z,97576.31
2023-02-19T03:39:02.987Z,97576.44
2023-02-19T03:41:30.259Z,97575.22
2023-02-19T03:44:11.140Z,97565.22
2023-02-19T03:46:38.116Z,97566.25
2023-02-19T03:49:11.282Z,97564.13
2023-02-19T03:51:44.391Z,97574.88
2023-02-19T03:54:18.874Z,97561.75
2023-02-19T03:57:15.556Z,97565.06
2023-02-19T04:00:03.640Z,97554.53
2023-02-19T04:02:48.264Z,97555.09
2023-02-19T04:05:26.951Z,97555.97
2023-02-19T04:07:56.103Z,97558.31
2023-02-19T04:10:29.506Z,97571.44
2023-02-19T04:13:02.909Z,97555.34
2023-02-19T04:15:31.398Z,97558.06
2023-02-19T04:18:05.696Z,97561.50
2023-02-19T04:20:34.611Z,97560.91
2023-02-19T04:23:01.608Z,97549.31
2023-02-19T04:25:29.761Z,97543.38
2023-02-19T04:27:58.944Z,97559.13
2023-02-19T04:30:26.019Z,97551.81
2023-02-19T04:32:52.969Z,97554.66
2023-02-19T04:35:20.338Z,97549.81
2023-02-19T04:37:47.517Z,97546.25
2023-02-19T04:40:14.528Z,97553.94
2023-02-19T04:42:41.477Z,97552.28
2023-02-19T04:45:08.562Z,97542.22
2023-02-19T04:47:35.848Z,97544.81
2023-02-19T04:50:02.847Z,97535.97
2023-02-19T04:52:29.986Z,97545.22
2023-02-19T04:54:57.064Z,97545.22
2023-02-19T04:57:24.084Z,97539.06
2023-02-19T04:59:51.026Z,97529.84
2023-02-19T05:02:17.978Z,97526.06
2023-02-19T05:04:44.943Z,97529.63
2023-02-19T05:07:11.964Z,97535.28
2023-02-19T05:09:38.875Z,97537.41
2023-02-19T05:12:05.940Z,97532.66
2023-02-19T05:14:32.979Z,97524.16
2023-02-19T05:16:59.865Z,97523.91
2023-02-19T05:19:26.938Z,97522.72
2023-02-19T05:21:53.852Z,97522.50
2023-02-19T05:24:20.901Z,97517.28
2023-02-19T05:26:48.664Z,97523.31
2023-02-19T05:29:15.842Z,97521.09
2023-02-19T05:31:42.898Z,97526.16
2023-02-19T05:34:09.994Z,97522.38
2023-02-19T05:36:37.589Z,97524.91
2023-02-19T05:39:06.472Z,97512.59
2023-02-19T05:41:33.658Z,97517.09
2023-02-19T05:44:00.667Z,97517.09
2023-02-19T05:46:30.013Z,97511.03
2023-02-19T05:48:58.448Z,97513.69
2023-02-19T05:51:27.816Z,97506.47
2023-02-19T05:53:55.493Z,97510.59
2023-02-19T05:56:33.083Z,97510.50
2023-02-19T05:59:01.158Z,97507.16
2023-02-19T06:01:30.861Z,97509.91
2023-02-19T06:03:59.564Z,97506.00
2023-02-19T06:06:27.203Z,97503.50
2023-02-19T06:08:54.686Z,97499.59
2023-02-19T06:11:21.768Z,97508.38
2023-02-19T06:13:50.652Z,97503.66
2023-02-19T06:16:18.000Z,97504.59
2023-02-19T06:18:45.596Z,97504.34
2023-02-19T06:21:13.313Z,97506.59
2023-02-19T06:23:40.712Z,97505.06
2023-02-19T06:26:12.181Z,97509.06
2023-02-19T06:28:40.333Z,97510.50
2023-02-19T06:31:08.075Z,97512.63
2023-02-19T06:33:35.290Z,97503.75
2023-02-19T06:36:03.362Z,97508.47
2023-02-19T06:38:30.841Z,97499.59
2023-02-19T06:41:07.339Z,97498.88
2023-02-19T06:43:34.828Z,97490.47
2023-02-19T06:46:03.092Z,97486.34
2023-02-19T06:48:30.833Z,97488.22
2023-02-19T06:50:57.967Z,97492.13
2023-02-19T06:53:24.987Z,97487.50
2023-02-19T06:56:00.028Z,97485.13
2023-02-19T06:58:27.110Z,97475.19
2023-02-19T07:00:54.834Z,97478.75
2023-02-19T07:03:21.788Z,97476.97
2023-02-19T07:05:48.867Z,97472.59
2023-02-19T07:08:17.562Z,97473.50
2023-02-19T07:10:44.980Z,97462.56
2023-02-19T07:13:12.141Z,97479.63
2023-02-19T07:15:39.150Z,97468.97
2023-02-19T07:18:10.983Z,97469.19
2023-02-19T07:20:40.420Z,97467.28
2023-02-19T07:23:07.500Z,97466.53
2023-02-19T07:25:34.512Z,97464.53
2023-02-19T07:28:01.400Z,97452.63
2023-02-19T07:30:28.676Z,97453.97
2023-02-19T07:32:55.800Z,97453.34
2023-02-19T07:35:22.928Z,97454.81
2023-02-19T07:37:49.990Z,97449.69
2023-02-19T07:40:16.990Z,97448.50
2023-02-19T07:42:44.030Z,97456.88
2023-02-19T07:45:11.230Z,97452.63
2023-02-19T07:47:38.198Z,97446.72
2023-02-19T07:50:05.795Z,97446.72
2023-02-19T07:52:34.127Z,97446.22
2023-02-19T07:55:01.091Z,97442.28
2023-02-19T07:57:29.469Z,97433.84
2023-02-19T07:59:56.453Z,97443.88
2023-02-19T08:02:42.161Z,97430.03
2023-02-19T08:05:09.211Z,97429.78
2023-02-19T08:07:36.822Z,97431.38
2023-02-19T08:10:22.901Z,97422.59
2023-02-19T08:13:18.383Z,97424.81
2023-02-19T08:15:45.634Z,97435.41
2023-02-19T08:18:14.161Z,97425.88
2023-02-19T08:20:41.087Z,97418.91
2023-02-19T08:23:08.455Z,97424.56
2023-02-19T08:25:35.578Z,97418.66
2023-02-19T08:28:02.498Z,97427.03
2023-02-19T08:30:30.228Z,97418.97
2023-02-19T08:32:58.687Z,97415.06
2023-02-19T08:35:26.664Z,97412.91
2023-02-19T08:37:57.384Z,97419.28
2023-02-19T08:40:24.657Z,97414.22
2023-02-19T08:42:52.066Z,97406.81
2023-02-19T08:45:19.390Z,97410.81
2023-02-19T08:47:46.738Z,97414.66
2023-02-19T08:50:13.843Z,97409.19
2023-02-19T08:52:40.784Z,97407.09
2023-02-19T08:55:07.811Z,97409.84
2023-02-19T08:57:40.584Z,97406.69
2023-02-19T09:00:09.073Z,97401.50
2023-02-19T09:02:36.251Z,97399.56
2023-02-19T09:05:03.246Z,97403.72
2023-02-19T09:07:30.239Z,97398.44
2023-02-19T09:09:57.653Z,97400.94
2023-02-19T09:12:24.859Z,97403.75
2023-02-19T09:14:51.939Z,97396.19
2023-02-19T09:17:18.852Z,97389.94
2023-02-19T09:19:45.800Z,97389.06
2023-02-19T09:22:12.805Z,97386.34
2023-02-19T09:24:39.776Z,97391.28
2023-02-19T09:27:06.747Z,97386.84
2023-02-19T09:29:34.687Z,97376.44
2023-02-19T09:32:01.708Z,97378.97
2023-02-19T09:34:29.271Z,97371.66
2023-02-19T09:36:56.170Z,97385.28
2023-02-19T09:39:23.179Z,97370.44
2023-02-19T09:42:01.435Z,97368.78
2023-02-19T09:44:33.296Z,97364.25
2023-02-19T09:47:01.047Z,97365.44
2023-02-19T09:49:35.865Z,97363.53
2023-02-19T09:52:12.070Z,97362.59
2023-02-19T09:54:40.000Z,97360.38
2023-02-19T09:57:10.819Z,97358.19
2023-02-19T09:59:42.634Z,97357.66
2023-02-19T10:02:15.912Z,97355.31
2023-02-19T10:04:44.022Z,97359.91
2023-02-19T10:07:13.569Z,97341.03
2023-02-19T10:09:40.541Z,97346.34
2023-02-19T10:12:15.258Z,97342.22
2023-02-19T10:14:45.300Z,97346.59
2023-02-19T10:17:19.384Z,97353.03
2023-02-19T10:19:46.498Z,97348.44
2023-02-19T10:22:13.642Z,97348.59
2023-02-19T10:24:41.787Z,97344.06
2023-02-19T10:27:13.423Z,97350.84
2023-02-19T10:29:40.424Z,97352.78
2023-02-19T10:32:21.202Z,97344.97
2023-02-19T10:34:48.387Z,97337.56
2023-02-19T10:37:17.305Z,97343.66
2023-02-19T10:39:44.406Z,97343.09
2023-02-19T10:42:15.888Z,97349.28
2023-02-19T10:44:44.370Z,97331.53
2023-02-19T10:47:17.013Z,97344.59
2023-02-19T10:49:46.584Z,97343.50
2023-02-19T10:52:18.339Z,97341.97
2023-02-19T10:54:45.945Z,97334.84
2023-02-19T10:57:15.866Z,97332.06
2023-02-19T10:59:50.626Z,97326.31
2023-02-19T11:02:19.528Z,97322.59
2023-02-19T11:05:03.456Z,97323.97
2023-02-19T11:07:31.034Z,97328.50
2023-02-19T11:09:59.212Z,97324.22
2023-02-19T11:12:31.227Z,97328.81
2023-02-19T11:15:16.968Z,97321.16
2023-02-19T11:17:44.166Z,97320.69
2023-02-19T11:20:16.279Z,97307.28
2023-02-19T11:22:47.180Z,97315.81
2023-02-19T11:25:19.846Z,97317.22
2023-02-19T11:27:58.787Z,97310.25
2023-02-19T11:30:34.536Z,97316.91
2023-02-19T11:33:20.126Z,97318.84
2023-02-19T11:35:48.701Z,97304.97
2023-02-19T11:38:17.035Z,97316.13
2023-02-19T11:40:53.975Z,97307.06
2023-02-19T11:43:37.066Z,97307.19
2023-02-19T11:46:13.248Z,97312.00
2023-02-19T11:48:56.518Z,97309.28
2023-02-19T11:51:31.724Z,97306.78
2023-02-19T11:54:19.083Z,97303.75
2023-02-19T11:56:49.770Z,97300.16
2023-02-19T11:59:23.169Z,97292.16
2023-02-19T12:01:50.253Z,97297.09
2023-02-19T12:04:32.806Z,97295.19
2023-02-19T12:07:09.340Z,97297.00
2023-02-19T12:09:51.782Z,97303.06
2023-02-19T12:12:40.472Z,97287.91
2023-02-19T12:15:26.553Z,97293.59
2023-02-19T12:17:53.588Z,97294.13
2023-02-19T12:20:20.937Z,97286.44
2023-02-19T12:23:07.236Z,97290.03
2023-02-19T12:25:49.573Z,97301.28
2023-02-19T12:28:22.614Z,97303.50
2023-02-19T12:31:08.479Z,97287.81
2023-02-19T12:33:54.726Z,97287.41
2023-02-19T12:36:24.498Z,97294.00
2023-02-19T12:38:51.489Z,97294.97
2023-02-19T12:41:32.453Z,97297.56
2023-02-19T12:44:02.062Z,97300.75
2023-02-19T12:46:33.817Z,97299.25
2023-02-19T12:49:07.023Z,97300.31
2023-02-19T12:51:43.895Z,97306.38
2023-02-19T12:54:31.243Z,97299.25
2023-02-19T12:57:06.986Z,97307.75
2023-02-19T12:59:37.909Z,97307.34
2023-02-19T13:02:14.250Z,97313.63
2023-02-19T13:04:45.528Z,97315.31
2023-02-19T13:07:28.190Z,97312.28
2023-02-19T13:09:58.482Z,97310.34
2023-02-19T13:12:31.049Z,97310.88
2023-02-19T13:15:04.038Z,97315.41
2023-02-19T13:17:34.262Z,97318.97
2023-02-19T13:20:23.286Z,97314.13
2023-02-19T13:23:27.515Z,97321.81
2023-02-19T13:26:10.283Z,97312.25
2023-02-19T13:28:37.579Z,97313.47
2023-02-19T13:31:25.094Z,97317.84
2023-02-19T13:33:55.285Z,97317.44
2023-02-19T13:36:31.990Z,97313.44
2023-02-19T13:38:59.825Z,97314.91
2023-02-19T13:41:28.693Z,97319.16
2023-02-19T13:43:57.882Z,97308.31
2023-02-19T13:46:25.095Z,97316.88
2023-02-19T13:49:13.350Z,97313.53
2023-02-19T13:51:47.177Z,97308.47
2023-02-19T13:54:20.312Z,97313.84
2023-02-19T13:56:47.714Z,97309.16
2023-02-19T13:59:17.982Z,97299.28
2023-02-19T14:01:54.127Z,97311.66
2023-02-19T14:04:39.882Z,97306.00
2023-02-19T14:07:06.784Z,97302.78
2023-02-19T14:09:37.160Z,97295.38
2023-02-19T14:12:15.692Z,97300.72
2023-02-19T14:14:46.226Z,97291.69
2023-02-19T14:17:32.061Z,97286.16
2023-02-19T14:20:02.241Z,97279.72
2023-02-19T14:23:06.822Z,97289.03
2023-02-19T14:25:39.863Z,97281.28
2023-02-19T14:28:25.489Z,97286.25
2023-02-19T14:30:59.521Z,97289.03
2023-02-19T14:33:31.722Z,97280.25
2023-02-19T14:36:06.093Z,97283.75
2023-02-19T14:38:38.365Z,97280.31
2023-02-19T14:41:06.888Z,97278.44
2023-02-19T14:43:34.677Z,97278.44
2023-02-19T14:46:04.837Z,97279.94
2023-02-19T14:48:34.663Z,97278.28
2023-02-19T14:51:09.584Z,97273.91
2023-02-19T14:53:39.761Z,97279.81
2023-02-19T14:56:08.622Z,97271.13
2023-02-19T14:58:37.122Z,97272.66
2023-02-19T15:03:49.515Z,97270.06
2023-02-19T15:06:19.635Z,97277.47
2023-02-19T15:08:48.690Z,97273.84
2023-02-19T15:11:19.210Z,97272.34
2023-02-19T15:13:51.527Z,97275.22
2023-02-19T15:16:19.878Z,97268.13
2023-02-19T15:18:48.067Z,97275.09
2023-02-19T15:21:29.255Z,97273.22
2023-02-19T15:23:59.987Z,97270.19
2023-02-19T15:26:40.579Z,97268.00
2023-02-19T15:29:12.651Z,97266.03
2023-02-19T15:31:59.761Z,97264.81
2023-02-19T15:34:28.259Z,97256.03
2023-02-19T15:37:04.531Z,97257.16
2023-02-19T15:39:36.203Z,97252.59
2023-02-19T15:42:04.222Z,97245.06
2023-02-19T15:44:35.542Z,97259.44
2023-02-19T15:47:08.204Z,97249.84
2023-02-19T15:49:55.523Z,97248.13
2023-02-19T15:52:27.784Z,97246.50
2023-02-19T15:55:15.174Z,97239.22
2023-02-19T15:57:48.790Z,97243.63
2023-02-19T16:00:21.981Z,97241.06
2023-02-19T16:02:49.481Z,97241.19
2023-02-19T16:05:24.336Z,97236.81
2023-02-19T16:08:10.071Z,97237.47
2023-02-19T16:10:37.186Z,97239.25
2023-02-19T16:13:05.604Z,97237.75
2023-02-19T16:15:33.466Z,97243.94
2023-02-19T16:18:00.983Z,97237.75
2023-02-19T16:20:30.236Z,97236.72
2023-02-19T16:23:02.676Z,97233.00
2023-02-19T16:25:35.737Z,97224.72
2023-02-19T16:28:10.613Z,97229.09
2023-02-19T16:30:37.764Z,97233.25
2023-02-19T16:33:21.540Z,97233.69
2023-02-19T16:35:49.945Z,97226.81
2023-02-19T16:38:19.878Z,97227.25
2023-02-19T16:40:54.391Z,97225.84
2023-02-19T16:43:31.400Z,97230.69
2023-02-19T16:45:59.715Z,97231.09
2023-02-19T16:48:26.935Z,97226.47
2023-02-19T16:50:55.024Z,97231.25
2023-02-19T16:53:27.397Z,97228.31
2023-02-19T16:55:59.342Z,97232.69
2023-02-19T16:58:27.805Z,97227.75
2023-02-19T17:00:54.957Z,97231.31
2023-02-19T17:03:24.247Z,97228.47
2023-02-19T17:05:51.559Z,97229.03
2023-02-19T17:08:44.874Z,97231.09
2023-02-19T17:11:16.833Z,97226.13
2023-02-19T17:13:55.409Z,97225.31
2023-02-19T17:16:24.463Z,97221.75
2023-02-19T17:18:51.949Z,97223.09
2023-02-19T17:21:26.377Z,97224.75
2023-02-19T17:23:54.377Z,97216.53
2023-02-19T17:29:06.309Z,97215.31
2023-02-19T17:31:34.319Z,97215.59
2023-02-19T17:34:01.592Z,97215.84
2023-02-19T17:36:33.233Z,97211.47
2023-02-19T17:39:01.288Z,97208.84
2023-02-19T17:41:28.979Z,97212.69
2023-02-19T17:43:56.036Z,97199.50
2023-02-19T17:49:05.716Z,97208.47
2023-02-19T17:51:32.835Z,97210.09
2023-02-19T17:54:00.094Z,97204.31
2023-02-19T17:56:37.803Z,97203.06
2023-02-19T17:59:04.829Z,97205.28
2023-02-19T18:01:31.945Z,97204.31
2023-02-19T18:03:59.229Z,97198.44
2023-02-19T18:06:26.471Z,97199.38
2023-02-19T18:08:53.894Z,97196.78
2023-02-19T18:11:22.428Z,97195.00
2023-02-19T18:13:50.707Z,97194.84
2023-02-19T18:16:18.096Z,97196.91
2023-02-19T18:18:45.355Z,97195.16
2023-02-19T18:21:13.846Z,97201.72
2023-02-19T18:23:41.487Z,97188.84
2023-02-19T18:26:10.935Z,97194.31
2023-02-19T18:28:38.103Z,97187.19
2023-02-19T18:31:05.705Z,97187.75
2023-02-19T18:33:33.934Z,97190.75
2023-02-19T18:36:01.042Z,97181.84
2023-02-19T18:38:28.209Z,97190.22
2023-02-19T18:40:57.805Z,97189.53
2023-02-19T18:43:27.099Z,97193.50
2023-02-19T18:45:54.316Z,97180.34
2023-02-19T18:48:22.728Z,97184.03
2023-02-19T18:50:49.755Z,97179.53
2023-02-19T18:53:16.906Z,97175.94
2023-02-19T18:55:45.433Z,97176.91
2023-02-19T18:58:12.850Z,97174.13
2023-02-19T19:00:40.585Z,97183.03
2023-02-19T19:05:50.657Z,97175.38
2023-02-19T19:08:19.139Z,97175.13
2023-02-19T19:10:46.247Z,97173.19
2023-02-19T19:13:13.266Z,97177.56
2023-02-19T19:15:42.835Z,97173.19
2023-02-19T19:18:11.328Z,97174.56
2023-02-19T19:20:39.672Z,97169.75
2023-02-19T19:23:06.612Z,97163.59
2023-02-19T19:25:33.523Z,97161.13
2023-02-19T19:28:00.615Z,97163.72
2023-02-19T19:30:27.787Z,97154.66
2023-02-19T19:32:54.933Z,97160.84
2023-02-19T19:35:22.178Z,97161.25
2023-02-19T19:37:49.502Z,97166.88
2023-02-19T19:40:17.516Z,97163.56
2023-02-19T19:42:44.856Z,97162.19
2023-02-19T19:45:12.021Z,97156.16
2023-02-19T19:47:39.055Z,97156.97
2023-02-19T19:50:06.214Z,97161.94
2023-02-19T19:52:33.199Z,97166.91
2023-02-19T19:55:00.391Z,97169.34
2023-02-19T19:57:27.553Z,97170.72
2023-02-19T19:59:54.593Z,97168.81
2023-02-19T20:02:22.965Z,97160.28
2023-02-19T20:04:50.201Z,97169.59
2023-02-19T20:07:17.353Z,97164.41
2023-02-19T20:09:46.989Z,97165.22
2023-02-19T20:12:19.225Z,97165.22
2023-02-19T20:14:46.936Z,97163.31
2023-02-19T20:17:14.519Z,97163.31
2023-02-19T20:19:42.223Z,97159.59
2023-02-19T20:22:09.240Z,97160.31
2023-02-19T20:24:55.883Z,97151.25
2023-02-19T20:27:24.612Z,97154.69
2023-02-19T20:29:51.960Z,97151.91
2023-02-19T20:32:19.241Z,97157.69
2023-02-19T20:34:46.589Z,97151.25
2023-02-19T20:37:13.547Z,97149.72
2023-02-19T20:39:40.617Z,97151.78
2023-02-19T20:42:07.824Z,97157.13
2023-02-19T20:44:34.865Z,97159.75
2023-02-19T20:47:02.127Z,97152.06
2023-02-19T20:49:30.523Z,97149.44
2023-02-19T20:52:02.000Z,97143.81
2023-02-19T20:54:33.090Z,97156.72
2023-02-19T20:57:01.644Z,97152.06
2023-02-19T20:59:31.012Z,97153.03
2023-02-19T21:01:58.979Z,97146.69
2023-02-19T21:04:26.424Z,97150.44
2023-02-19T21:06:53.445Z,97142.44
2023-02-19T21:09:20.970Z,97146.56
2023-02-19T21:11:48.456Z,97157.97
2023-02-19T21:14:15.848Z,97149.16
2023-02-19T21:16:42.926Z,97154.53
2023-02-19T21:19:10.040Z,97155.50
2023-02-19T21:21:37.011Z,97150.69
2023-02-19T21:24:05.329Z,97153.31
2023-02-19T21:26:33.306Z,97155.34
2023-02-19T21:29:01.216Z,97146.56
2023-02-19T21:31:38.752Z,97152.88
2023-02-19T21:34:06.858Z,97155.22
2023-02-19T21:36:34.025Z,97164.97
2023-02-19T21:39:01.162Z,97152.06
2023-02-19T21:41:28.392Z,97148.91
2023-02-19T21:43:55.770Z,97147.94
2023-02-19T21:46:23.865Z,97148.63
2023-02-19T21:48:54.809Z,97147.53
2023-02-19T21:51:27.567Z,97142.31
2023-02-19T21:53:54.578Z,97148.50
2023-02-19T21:56:22.851Z,97147.53
2023-02-19T21:58:49.987Z,97149.88
2023-02-19T22:01:23.839Z,97151.66
2023-02-19T22:03:51.099Z,97150.69
2023-02-19T22:06:18.707Z,97153.31
2023-02-19T22:08:45.747Z,97152.91
2023-02-19T22:11:12.814Z,97147.53
2023-02-19T22:13:39.934Z,97142.03
2023-02-19T22:16:07.350Z,97142.88
2023-02-19T22:18:34.825Z,97148.50
2023-02-19T22:21:03.364Z,97149.03
2023-02-19T22:23:30.288Z,97149.56
2023-02-19T22:25:57.251Z,97152.75
2023-02-19T22:28:24.311Z,97150.44
2023-02-19T22:30:51.282Z,97149.31
2023-02-19T22:33:18.460Z,97135.19
2023-02-19T22:35:45.651Z,97137.78
2023-02-19T22:38:12.561Z,97146.28
2023-02-19T22:40:39.596Z,97143.13
2023-02-19T22:43:08.301Z,97150.84
2023-02-19T22:45:35.527Z,97134.47
2023-02-19T22:48:02.596Z,97150.84
2023-02-19T22:50:29.611Z,97147.13
2023-02-19T22:52:56.619Z,97137.50
2023-02-19T22:55:23.624Z,97144.25
2023-02-19T22:57:50.777Z,97147.94
2023-02-19T23:00:22.656Z,97149.88
2023-02-19T23:02:49.655Z,97150.53
2023-02-19T23:05:16.878Z,97142.72
2023-02-19T23:07:46.957Z,97152.06
2023-02-19T23:10:14.155Z,97143.28
2023-02-19T23:12:41.619Z,97148.75
2023-02-19T23:15:09.496Z,97147.38
2023-02-19T23:17:36.479Z,97154.78
2023-02-19T23:20:04.074Z,97146.69
2023-02-19T23:22:31.260Z,97152.19
2023-02-19T23:24:58.176Z,97149.44
2023-02-19T23:27:26.846Z,97159.75
2023-02-19T23:29:53.774Z,97163.47
2023-02-19T23:32:21.325Z,97163.31
2023-02-19T23:34:48.452Z,97160.31
2023-02-19T23:37:15.528Z,97164.72
2023-02-19T23:39:42.605Z,97162.91
2023-02-19T23:42:13.923Z,97158.66
2023-02-19T23:44:41.410Z,97169.38
2023-02-19T23:47:08.572Z,97167.16
2023-02-19T23:49:35.628Z,97164.69
2023-02-19T23:52:02.566Z,97172.13
2023-02-19T23:54:29.581Z,97164.81
2023-02-19T23:56:56.514Z,97167.41
2023-02-19T23:59:23.759Z,97165.22
